createdAt,value
2023-04-13T00:01:52.985Z,78.50
2023-04-13T00:04:28.425Z,78.80
2023-04-13T00:07:04.401Z,79.00
2023-04-13T00:09:39.625Z,79.00
2023-04-13T00:12:14.257Z,79.10
2023-04-13T00:14:52.343Z,79.00
2023-04-13T00:17:26.603Z,79.10
2023-04-13T00:20:01.850Z,79.20
2023-04-13T00:22:37.518Z,79.00
2023-04-13T00:25:12.320Z,79.10
2023-04-13T00:27:47.284Z,79.40
2023-04-13T00:30:22.997Z,79.20
2023-04-13T00:32:57.040Z,79.00
2023-04-13T00:35:31.538Z,78.80
2023-04-13T00:38:07.376Z,77.70
2023-04-13T00:40:42.665Z,77.30
2023-04-13T00:43:17.348Z,77.20
2023-04-13T00:45:52.260Z,77.30
2023-04-13T00:48:26.892Z,77.40
2023-04-13T00:51:01.895Z,77.10
2023-04-13T00:53:38.026Z,76.60
2023-04-13T00:56:14.023Z,76.80
2023-04-13T00:58:49.820Z,76.70
2023-04-13T01:01:25.394Z,76.80
2023-04-13T01:04:00.083Z,76.50
2023-04-13T01:06:38.132Z,75.30
2023-04-13T01:09:15.884Z,74.50
2023-04-13T01:11:52.212Z,74.10
2023-04-13T01:14:30.288Z,73.80
2023-04-13T01:17:07.589Z,74.20
2023-04-13T01:19:46.950Z,73.30
2023-04-13T01:22:24.170Z,73.30
2023-04-13T01:25:07.529Z,72.90
2023-04-13T01:27:49.706Z,73.00
2023-04-13T01:30:28.834Z,72.60
2023-04-13T01:33:04.770Z,72.00
2023-04-13T01:35:40.565Z,71.30
2023-04-13T01:38:18.665Z,70.50
2023-04-13T01:40:53.492Z,70.70
2023-04-13T01:43:32.569Z,71.10
2023-04-13T01:46:15.527Z,70.40
2023-04-13T01:49:02.289Z,71.00
2023-04-13T01:51:47.092Z,71.10
2023-04-13T01:54:28.018Z,71.40
2023-04-13T01:57:03.752Z,70.70
2023-04-13T01:59:42.225Z,69.10
2023-04-13T02:02:20.068Z,68.70
2023-04-13T02:04:55.176Z,68.00
2023-04-13T02:07:29.314Z,69.10
2023-04-13T02:10:03.630Z,69.00
2023-04-13T02:12:37.931Z,67.30
2023-04-13T02:15:16.215Z,67.50
2023-04-13T02:17:50.781Z,67.00
2023-04-13T02:20:26.871Z,66.40
2023-04-13T02:23:02.301Z,66.40
2023-04-13T02:25:37.504Z,66.90
2023-04-13T02:28:11.342Z,67.20
2023-04-13T02:30:47.261Z,67.70
2023-04-13T02:33:23.105Z,68.10
2023-04-13T02:35:58.839Z,66.90
2023-04-13T02:38:34.080Z,67.10
2023-04-13T02:41:14.938Z,66.10
2023-04-13T02:43:49.150Z,66.30
2023-04-13T02:46:28.416Z,66.00
2023-04-13T02:49:12.336Z,66.40
2023-04-13T02:51:56.807Z,66.30
2023-04-13T02:54:44.925Z,66.00
2023-04-13T02:57:23.146Z,66.80
2023-04-13T02:59:58.683Z,66.20
2023-04-13T03:02:44.931Z,66.40
2023-04-13T03:05:21.580Z,64.70
2023-04-13T03:07:58.803Z,64.30
2023-04-13T03:10:34.392Z,64.50
2023-04-13T03:13:08.119Z,65.00
2023-04-13T03:15:43.003Z,63.80
2023-04-13T03:18:21.491Z,64.00
2023-04-13T03:20:56.469Z,65.40
2023-04-13T03:23:36.354Z,64.20
2023-04-13T03:26:12.734Z,65.40
2023-04-13T03:28:48.872Z,65.20
2023-04-13T03:31:23.924Z,64.90
2023-04-13T03:34:01.748Z,64.60
2023-04-13T03:36:35.722Z,63.90
2023-04-13T03:39:10.078Z,64.50
2023-04-13T03:41:44.897Z,64.60
2023-04-13T03:44:20.692Z,64.70
2023-04-13T03:46:55.048Z,64.60
2023-04-13T03:49:37.425Z,65.00
2023-04-13T03:52:11.261Z,64.90
2023-04-13T03:54:48.948Z,63.60
2023-04-13T03:57:22.733Z,63.20
2023-04-13T03:59:58.238Z,63.60
2023-04-13T04:02:47.277Z,63.90
2023-04-13T04:05:33.665Z,64.00
2023-04-13T04:08:10.776Z,64.00
2023-04-13T04:10:45.768Z,64.30
2023-04-13T04:13:20.538Z,63.80
2023-04-13T04:15:58.284Z,63.20
2023-04-13T04:18:35.399Z,63.70
2023-04-13T04:21:15.888Z,63.00
2023-04-13T04:23:49.927Z,62.60
2023-04-13T04:26:27.317Z,62.80
2023-04-13T04:29:05.654Z,62.20
2023-04-13T04:31:45.752Z,62.70
2023-04-13T04:34:23.726Z,62.40
2023-04-13T04:37:03.129Z,62.80
2023-04-13T04:39:45.791Z,63.60
2023-04-13T04:42:23.379Z,63.50
2023-04-13T04:44:58.190Z,64.00
2023-04-13T04:47:34.054Z,63.80
2023-04-13T04:50:19.375Z,63.40
2023-04-13T04:53:01.908Z,63.20
2023-04-13T04:55:35.998Z,63.40
2023-04-13T04:58:11.328Z,63.70
2023-04-13T05:00:51.407Z,64.30
2023-04-13T05:03:26.764Z,65.00
2023-04-13T05:06:11.720Z,65.50
2023-04-13T05:08:48.566Z,65.70
2023-04-13T05:11:22.919Z,65.70
2023-04-13T05:14:00.165Z,66.40
2023-04-13T05:16:35.753Z,66.50
2023-04-13T05:19:17.647Z,66.80
2023-04-13T05:21:56.495Z,66.90
2023-04-13T05:26:46.297Z,67.20
2023-04-13T05:29:27.885Z,66.70
2023-04-13T05:32:05.076Z,67.20
2023-04-13T05:34:41.797Z,68.00
2023-04-13T05:37:23.848Z,68.10
2023-04-13T05:40:00.302Z,68.50
2023-04-13T05:42:43.342Z,69.00
2023-04-13T05:45:26.403Z,69.50
2023-04-13T05:48:22.686Z,69.40
2023-04-13T05:51:03.203Z,70.10
2023-04-13T05:53:41.311Z,70.40
2023-04-13T05:56:16.326Z,70.90
2023-04-13T05:58:54.486Z,70.80
2023-04-13T06:01:33.880Z,70.80
2023-04-13T06:04:11.159Z,71.00
2023-04-13T06:06:46.839Z,70.80
2023-04-13T06:09:24.513Z,69.90
2023-04-13T06:12:01.270Z,69.20
2023-04-13T06:14:38.782Z,69.40
2023-04-13T06:17:13.891Z,70.10
2023-04-13T06:19:50.447Z,71.50
2023-04-13T06:22:25.932Z,72.40
2023-04-13T06:25:01.950Z,73.50
2023-04-13T06:27:42.046Z,74.20
2023-04-13T06:30:20.643Z,74.70
2023-04-13T06:33:00.568Z,74.70
2023-04-13T06:35:37.895Z,75.20
2023-04-13T06:38:13.486Z,75.50
2023-04-13T06:41:07.264Z,75.90
2023-04-13T06:43:46.232Z,75.90
2023-04-13T06:46:38.724Z,75.90
2023-04-13T06:49:20.322Z,75.90
2023-04-13T06:51:59.737Z,75.20
2023-04-13T06:54:34.738Z,75.40
2023-04-13T06:57:16.488Z,75.60
2023-04-13T06:59:51.558Z,75.70
2023-04-13T07:02:30.674Z,76.10
2023-04-13T07:05:08.764Z,76.30
2023-04-13T07:07:44.654Z,76.30
2023-04-13T07:10:21.494Z,76.20
2023-04-13T07:12:58.407Z,76.10
2023-04-13T07:15:36.408Z,76.00
2023-04-13T07:18:14.120Z,75.60
2023-04-13T07:20:49.379Z,75.90
2023-04-13T07:23:28.356Z,75.70
2023-04-13T07:26:04.577Z,75.80
2023-04-13T07:28:40.207Z,75.70
2023-04-13T07:31:15.702Z,75.70
2023-04-13T07:33:57.590Z,75.70
2023-04-13T07:36:43.613Z,75.50
2023-04-13T07:39:23.244Z,75.40
2023-04-13T07:42:01.075Z,75.60
2023-04-13T07:45:03.613Z,75.40
2023-04-13T07:47:39.455Z,75.50
2023-04-13T07:50:19.686Z,75.50
2023-04-13T07:52:55.512Z,75.60
2023-04-13T07:55:32.799Z,75.90
2023-04-13T07:58:08.442Z,75.90
2023-04-13T08:00:44.109Z,76.30
2023-04-13T08:03:20.605Z,76.50
2023-04-13T08:06:00.932Z,76.80
2023-04-13T08:08:37.202Z,76.90
2023-04-13T08:11:13.469Z,77.20
2023-04-13T08:13:50.085Z,77.20
2023-04-13T08:16:26.870Z,77.30
2023-04-13T08:19:05.029Z,77.30
2023-04-13T08:21:46.389Z,77.10
2023-04-13T08:24:22.298Z,77.30
2023-04-13T08:27:00.361Z,77.50
2023-04-13T08:29:35.805Z,77.60
2023-04-13T08:32:11.830Z,77.40
2023-04-13T08:34:47.206Z,77.40
2023-04-13T08:37:28.253Z,77.50
2023-04-13T08:40:03.816Z,77.40
2023-04-13T08:42:41.311Z,77.10
2023-04-13T08:45:18.742Z,77.60
2023-04-13T08:47:56.876Z,78.20
2023-04-13T08:50:33.375Z,78.60
2023-04-13T08:53:11.862Z,78.90
2023-04-13T08:55:50.144Z,79.10
2023-04-13T08:58:29.537Z,79.30
2023-04-13T09:01:06.390Z,79.30
2023-04-13T09:03:51.462Z,78.80
2023-04-13T09:06:34.699Z,79.10
2023-04-13T09:09:17.410Z,79.10
2023-04-13T09:11:53.027Z,79.00
2023-04-13T09:14:29.440Z,78.90
2023-04-13T09:17:07.057Z,78.90
2023-04-13T09:19:47.169Z,78.80
2023-04-13T09:22:23.268Z,78.80
2023-04-13T09:25:01.036Z,78.80
2023-04-13T09:27:36.708Z,78.70
2023-04-13T09:30:14.058Z,78.40
2023-04-13T09:32:49.076Z,77.90
2023-04-13T09:35:24.235Z,78.00
2023-04-13T09:38:00.456Z,77.50
2023-04-13T09:40:40.767Z,77.10
2023-04-13T09:43:16.200Z,77.10
2023-04-13T09:45:52.403Z,77.20
2023-04-13T09:48:28.096Z,76.80
2023-04-13T09:51:07.041Z,76.80
2023-04-13T09:53:49.878Z,76.80
2023-04-13T09:56:28.896Z,76.50
2023-04-13T09:59:05.171Z,76.60
2023-04-13T10:01:43.030Z,76.50
2023-04-13T10:04:18.835Z,76.30
2023-04-13T10:06:55.151Z,76.30
2023-04-13T10:09:30.642Z,76.00
2023-04-13T10:12:09.498Z,76.10
2023-04-13T10:14:45.919Z,75.30
2023-04-13T10:17:48.789Z,75.30
2023-04-13T10:20:24.919Z,75.20
2023-04-13T10:23:03.629Z,75.40
2023-04-13T10:25:40.027Z,74.50
2023-04-13T10:28:17.632Z,74.70
2023-04-13T10:30:56.546Z,74.50
2023-04-13T10:33:33.333Z,74.60
2023-04-13T10:36:08.868Z,74.60
2023-04-13T10:38:49.313Z,74.80
2023-04-13T10:41:30.907Z,74.60
2023-04-13T10:44:12.685Z,74.60
2023-04-13T10:46:56.340Z,74.70
2023-04-13T10:49:40.238Z,74.70
2023-04-13T10:52:15.910Z,74.50
2023-04-13T10:54:52.186Z,74.10
2023-04-13T10:57:27.424Z,75.00
2023-04-13T11:00:06.029Z,75.60
2023-04-13T11:02:45.775Z,76.00
2023-04-13T11:05:23.982Z,76.60
2023-04-13T11:07:59.808Z,76.70
2023-04-13T11:10:35.468Z,76.90
2023-04-13T11:13:12.119Z,77.00
2023-04-13T11:15:49.894Z,77.10
2023-04-13T11:18:32.163Z,77.30
2023-04-13T11:21:08.822Z,77.40
2023-04-13T11:23:45.242Z,77.50
2023-04-13T11:26:22.047Z,77.50
2023-04-13T11:29:00.723Z,77.50
2023-04-13T11:31:45.776Z,77.80
2023-04-13T11:34:32.714Z,77.80
2023-04-13T11:37:09.577Z,77.90
2023-04-13T11:39:45.543Z,78.10
2023-04-13T11:42:20.748Z,78.30
2023-04-13T11:44:57.923Z,78.50
2023-04-13T11:47:37.044Z,78.80
2023-04-13T11:50:15.609Z,78.90
2023-04-13T11:52:54.046Z,78.80
2023-04-13T11:55:32.830Z,79.20
2023-04-13T11:58:14.139Z,79.20
2023-04-13T12:00:49.444Z,79.00
2023-04-13T12:03:38.529Z,79.00
2023-04-13T12:06:23.051Z,78.90
2023-04-13T12:09:09.958Z,78.90
2023-04-13T12:12:02.126Z,78.90
2023-04-13T12:17:38.042Z,78.80
2023-04-13T12:20:23.240Z,79.00
2023-04-13T12:25:36.180Z,79.20
2023-04-13T12:28:11.839Z,79.40
2023-04-13T12:30:50.026Z,79.50
2023-04-13T12:33:25.792Z,79.60
2023-04-13T12:36:03.403Z,79.80
2023-04-13T12:38:39.319Z,80.20
2023-04-13T12:41:14.822Z,80.20
2023-04-13T12:43:50.552Z,80.30
2023-04-13T12:46:28.087Z,80.20
2023-04-13T12:49:03.441Z,80.10
2023-04-13T12:51:40.848Z,80.10
2023-04-13T12:54:19.619Z,80.10
2023-04-13T12:56:58.673Z,80.20
2023-04-13T12:59:33.615Z,80.20
2023-04-13T13:02:08.604Z,80.20
2023-04-13T13:04:44.100Z,80.20
2023-04-13T13:07:21.331Z,79.50
2023-04-13T13:09:57.549Z,79.40
2023-04-13T13:12:34.128Z,79.70
2023-04-13T13:15:12.218Z,79.50
2023-04-13T13:17:48.036Z,79.40
2023-04-13T13:20:23.187Z,79.40
2023-04-13T13:23:00.323Z,79.70
2023-04-13T13:25:39.706Z,80.00
2023-04-13T13:28:17.229Z,80.10
2023-04-13T13:30:53.529Z,80.10
2023-04-13T13:33:29.441Z,80.30
2023-04-13T13:36:05.598Z,80.20
2023-04-13T13:38:43.188Z,80.20
2023-04-13T13:41:19.208Z,80.20
2023-04-13T13:43:54.480Z,80.20
2023-04-13T13:46:30.965Z,80.30
2023-04-13T13:49:09.097Z,80.20
2023-04-13T13:52:07.968Z,80.10
2023-04-13T13:54:53.634Z,79.90
2023-04-13T13:57:29.202Z,79.80
2023-04-13T14:00:14.796Z,79.90
2023-04-13T14:02:51.107Z,79.90
2023-04-13T14:05:26.806Z,79.60
2023-04-13T14:08:02.617Z,79.80
2023-04-13T14:10:40.797Z,79.50
2023-04-13T14:13:15.882Z,79.50
2023-04-13T14:15:51.440Z,79.30
2023-04-13T14:18:27.389Z,79.30
2023-04-13T14:21:03.491Z,79.20
2023-04-13T14:23:39.055Z,79.40
2023-04-13T14:26:16.790Z,78.60
2023-04-13T14:28:52.925Z,78.80
2023-04-13T14:31:28.587Z,78.70
2023-04-13T14:34:03.816Z,78.70
2023-04-13T14:36:39.000Z,78.30
2023-04-13T14:39:14.457Z,78.30
2023-04-13T14:41:52.985Z,78.50
2023-04-13T14:44:28.997Z,78.70
2023-04-13T14:47:08.930Z,78.50
2023-04-13T14:49:47.524Z,77.60
2023-04-13T14:52:22.799Z,76.40
2023-04-13T14:55:01.681Z,76.50
2023-04-13T14:57:39.594Z,76.50
2023-04-13T15:00:23.327Z,76.60
2023-04-13T15:02:59.178Z,77.00
2023-04-13T15:05:40.145Z,77.30
2023-04-13T15:08:15.949Z,77.20
2023-04-13T15:10:51.891Z,77.00
2023-04-13T15:13:29.940Z,77.20
2023-04-13T15:16:05.062Z,77.10
2023-04-13T15:18:40.688Z,76.50
2023-04-13T15:21:16.509Z,76.60
2023-04-13T15:23:52.339Z,76.60
2023-04-13T15:26:28.037Z,76.70
2023-04-13T15:29:05.902Z,76.60
2023-04-13T15:31:42.651Z,76.70
2023-04-13T15:34:18.192Z,76.80
2023-04-13T15:36:53.445Z,76.80
2023-04-13T15:39:29.847Z,76.50
2023-04-13T15:42:05.604Z,76.40
2023-04-13T15:44:44.673Z,76.10
2023-04-13T15:47:19.883Z,76.60
2023-04-13T15:49:55.033Z,77.10
2023-04-13T15:52:30.931Z,77.50
2023-04-13T15:55:06.770Z,77.60
2023-04-13T15:57:42.246Z,78.20
2023-04-13T16:00:21.021Z,78.50
2023-04-13T16:02:56.870Z,78.30
2023-04-13T16:05:32.611Z,78.20
2023-04-13T16:08:09.653Z,78.20
2023-04-13T16:10:45.913Z,78.10
2023-04-13T16:13:22.710Z,78.10
2023-04-13T16:16:05.431Z,78.30
2023-04-13T16:18:41.983Z,78.30
2023-04-13T16:21:21.060Z,78.50
2023-04-13T16:23:56.479Z,78.40
2023-04-13T16:26:32.016Z,78.70
2023-04-13T16:29:07.584Z,78.90
2023-04-13T16:31:46.489Z,79.10
2023-04-13T16:34:26.032Z,79.50
2023-04-13T16:37:02.339Z,79.60
2023-04-13T16:39:37.265Z,79.80
2023-04-13T16:42:12.766Z,80.00
2023-04-13T16:44:48.408Z,79.90
2023-04-13T16:47:29.289Z,79.90
2023-04-13T16:50:04.710Z,80.10
2023-04-13T16:52:40.671Z,80.00
2023-04-13T16:55:17.262Z,80.00
2023-04-13T16:57:52.574Z,79.90
2023-04-13T17:00:28.300Z,79.90
2023-04-13T17:03:06.201Z,80.00
2023-04-13T17:05:41.829Z,79.90
2023-04-13T17:08:18.190Z,80.10
2023-04-13T17:10:53.870Z,80.00
2023-04-13T17:13:29.128Z,79.90
2023-04-13T17:16:04.770Z,80.00
2023-04-13T17:18:43.353Z,79.90
2023-04-13T17:21:18.560Z,80.00
2023-04-13T17:23:53.571Z,79.90
2023-04-13T17:26:29.149Z,79.90
2023-04-13T17:29:05.127Z,79.70
2023-04-13T17:31:40.323Z,79.70
2023-04-13T17:34:18.098Z,79.50
2023-04-13T17:36:53.902Z,79.40
2023-04-13T17:39:29.729Z,79.50
2023-04-13T17:42:04.876Z,79.40
2023-04-13T17:44:40.270Z,79.60
2023-04-13T17:47:16.277Z,79.60
2023-04-13T17:49:54.452Z,79.60
2023-04-13T17:52:31.375Z,79.60
2023-04-13T17:55:06.547Z,79.60
2023-04-13T17:57:42.281Z,79.70
2023-04-13T18:00:19.111Z,79.70
2023-04-13T18:02:55.052Z,79.60
2023-04-13T18:05:32.905Z,79.50
2023-04-13T18:08:08.418Z,79.50
2023-04-13T18:10:43.911Z,79.60
2023-04-13T18:13:19.077Z,79.80
2023-04-13T18:15:54.476Z,79.50
2023-04-13T18:18:29.958Z,79.50
2023-04-13T18:21:08.325Z,79.70
2023-04-13T18:23:43.580Z,79.60
2023-04-13T18:26:19.006Z,79.60
2023-04-13T18:28:54.704Z,79.40
2023-04-13T18:31:30.209Z,79.30
2023-04-13T18:34:08.291Z,79.40
2023-04-13T18:36:46.359Z,79.30
2023-04-13T18:39:22.460Z,79.40
2023-04-13T18:41:58.045Z,79.30
2023-04-13T18:44:33.244Z,79.20
2023-04-13T18:47:08.564Z,79.20
2023-04-13T18:49:44.324Z,79.10
2023-04-13T18:52:22.303Z,79.10
2023-04-13T18:54:57.626Z,79.10
2023-04-13T18:57:32.830Z,79.00
2023-04-13T19:00:08.713Z,79.00
2023-04-13T19:02:48.021Z,79.20
2023-04-13T19:05:23.486Z,79.10
2023-04-13T19:08:05.494Z,79.00
2023-04-13T19:10:41.100Z,79.00
2023-04-13T19:13:17.375Z,79.00
2023-04-13T19:15:52.535Z,79.00
2023-04-13T19:18:28.851Z,79.10
2023-04-13T19:21:06.766Z,79.00
2023-04-13T19:23:44.614Z,79.10
2023-04-13T19:26:19.628Z,79.10
2023-04-13T19:28:54.572Z,79.30
2023-04-13T19:31:30.297Z,79.10
2023-04-13T19:34:06.002Z,79.40
2023-04-13T19:36:41.738Z,79.60
2023-04-13T19:39:19.509Z,79.30
2023-04-13T19:41:55.247Z,79.70
2023-04-13T19:44:31.015Z,80.00
2023-04-13T19:47:06.335Z,80.20
2023-04-13T19:49:41.550Z,80.20
2023-04-13T19:52:19.787Z,80.10
2023-04-13T19:54:57.830Z,80.00
2023-04-13T19:57:33.116Z,80.00
2023-04-13T20:00:10.504Z,80.00
2023-04-13T20:02:46.328Z,79.90
2023-04-13T20:05:23.262Z,79.90
2023-04-13T20:07:58.788Z,80.00
2023-04-13T20:10:36.485Z,80.20
2023-04-13T20:13:12.280Z,80.20
2023-04-13T20:15:47.832Z,80.30
2023-04-13T20:18:22.898Z,80.30
2023-04-13T20:20:58.376Z,80.30
2023-04-13T20:23:38.218Z,80.30
2023-04-13T20:26:16.987Z,80.30
2023-04-13T20:28:52.478Z,80.30
2023-04-13T20:31:27.584Z,80.30
2023-04-13T20:34:04.707Z,80.30
2023-04-13T20:36:40.348Z,80.30
2023-04-13T20:39:15.459Z,80.30
2023-04-13T20:41:56.638Z,80.30
2023-04-13T20:44:32.222Z,80.30
2023-04-13T20:47:07.725Z,80.30
2023-04-13T20:49:43.523Z,80.30
2023-04-13T20:52:19.793Z,80.30
2023-04-13T20:54:56.239Z,80.30
2023-04-13T20:57:34.655Z,80.30
2023-04-13T21:00:13.834Z,80.30
2023-04-13T21:02:50.679Z,80.30
2023-04-13T21:05:26.981Z,80.30
2023-04-13T21:08:02.299Z,80.20
2023-04-13T21:10:37.452Z,80.10
2023-04-13T21:13:14.998Z,79.90
2023-04-13T21:15:50.554Z,80.00
2023-04-13T21:18:28.397Z,80.00
2023-04-13T21:21:03.616Z,79.90
2023-04-13T21:23:39.586Z,80.10
2023-04-13T21:26:15.015Z,80.00
2023-04-13T21:28:52.728Z,80.00
2023-04-13T21:31:27.629Z,79.80
2023-04-13T21:34:02.962Z,79.60
2023-04-13T21:39:17.517Z,80.20
2023-04-13T21:41:52.457Z,80.10
2023-04-13T21:44:30.369Z,80.20
2023-04-13T21:47:05.624Z,80.20
2023-04-13T21:49:40.961Z,80.20
2023-04-13T21:52:15.883Z,80.00
2023-04-13T21:54:51.741Z,80.20
2023-04-13T21:57:27.274Z,80.30
2023-04-13T22:00:09.522Z,80.30
2023-04-13T22:02:57.223Z,80.30
2023-04-13T22:05:38.140Z,80.30
2023-04-13T22:08:13.806Z,80.30
2023-04-13T22:10:49.717Z,80.30
2023-04-13T22:13:24.747Z,80.30
2023-04-13T22:16:02.431Z,80.30
2023-04-13T22:18:38.238Z,80.30
2023-04-13T22:21:13.937Z,80.30
2023-04-13T22:23:49.113Z,80.30
2023-04-13T22:26:24.261Z,80.30
2023-04-13T22:29:00.430Z,80.30
2023-04-13T22:31:38.481Z,80.30
2023-04-13T22:34:13.538Z,80.30
2023-04-13T22:36:48.532Z,80.30
2023-04-13T22:39:24.023Z,80.30
2023-04-13T22:41:59.643Z,80.30
2023-04-13T22:44:38.663Z,80.30
2023-04-13T22:47:19.928Z,80.30
2023-04-13T22:49:56.118Z,80.30
2023-04-13T22:52:31.600Z,80.30
2023-04-13T22:55:06.573Z,80.30
2023-04-13T22:57:41.535Z,80.30
2023-04-13T23:00:18.456Z,80.30
2023-04-13T23:02:57.533Z,80.30
2023-04-13T23:05:32.775Z,80.30
2023-04-13T23:08:08.086Z,80.30
2023-04-13T23:10:43.848Z,80.30
2023-04-13T23:13:19.574Z,80.30
2023-04-13T23:15:54.855Z,80.30
2023-04-13T23:18:32.786Z,80.30
2023-04-13T23:21:15.460Z,80.30
2023-04-13T23:23:51.222Z,80.30
2023-04-13T23:26:26.357Z,80.30
2023-04-13T23:29:02.334Z,80.30
2023-04-13T23:31:38.328Z,80.30
2023-04-13T23:34:16.416Z,80.30
2023-04-13T23:36:51.316Z,80.30
2023-04-13T23:39:26.483Z,80.30
2023-04-13T23:42:01.970Z,80.30
2023-04-13T23:44:37.229Z,80.30
2023-04-13T23:47:12.291Z,80.30
2023-04-13T23:49:50.037Z,80.30
2023-04-13T23:52:25.602Z,80.30
2023-04-13T23:55:01.058Z,79.60
2023-04-13T23:57:39.563Z,79.90
